Time;durP1;ratioP1;P1;durP2;ratioP2;P2;SDS_P1;SDS_P2;PMS_P1;PMS_P2;Temp;Humidity;BMP_temperature;BMP_pressure;BME280_temperature;BME280_humidity;BME280_pressure;Samples;Min_cycle;Max_cycle;Signal;HPM_P1;HPM_P2
2023/02/22 00:00:41;;;;;;;19.98;7.93;;;;;;;;;;6155885;23;20032;-72
2023/02/22 00:03:14;;;;;;;21.23;8.13;;;;;;;;;;6113813;23;20025;-71
2023/02/22 00:08:33;;;;;;;16.75;7.85;;;;;;;;;;5004504;27;20865;-71
2023/02/22 00:21:40;;;;;;;25.30;8.25;;;;;;;;;;4993122;28;20515;-77
2023/02/22 00:24:21;;;;;;;19.83;7.95;;;;;;;;;;4976450;28;20135;-76
2023/02/22 00:26:49;;;;;;;21.50;8.30;;;;;;;;;;4987536;28;20049;-74
2023/02/22 00:29:26;;;;;;;19.50;8.13;;;;;;;;;;4930591;28;20149;-72
2023/02/22 00:37:13;;;;;;;19.58;7.88;;;;;;;;;;4954918;27;20519;-77
2023/02/22 00:39:49;;;;;;;21.75;8.45;;;;;;;;;;4950150;28;20051;-75
2023/02/22 00:42:23;;;;;;;19.88;8.18;;;;;;;;;;4903351;28;20063;-78
2023/02/22 00:44:58;;;;;;;22.55;8.05;;;;;;;;;;4908352;28;20062;-76
2023/02/22 00:47:25;;;;;;;20.08;8.18;;;;;;;;;;4930809;28;20074;-79
2023/02/22 00:49:52;;;;;;;21.73;8.65;;;;;;;;;;4970061;28;20107;-73
2023/02/22 00:52:23;;;;;;;22.65;8.70;;;;;;;;;;4935991;28;20148;-75
2023/02/22 00:54:50;;;;;;;21.65;8.68;;;;;;;;;;4953850;28;20062;-75
2023/02/22 01:02:41;;;;;;;23.48;8.82;;;;;;;;;;4996225;27;20500;-77
2023/02/22 01:10:27;;;;;;;23.67;9.15;;;;;;;;;;4995947;27;20451;-72
2023/02/22 01:12:58;;;;;;;24.50;8.68;;;;;;;;;;4982606;28;20053;-76
2023/02/22 01:15:26;;;;;;;;;;;;;;;;;;4940727;28;20069;-76
2023/02/22 01:17:53;;;;;;;24.75;8.65;;;;;;;;;;4890299;28;20373;-78
2023/02/22 01:27:53;;;;;;;22.05;9.10;;;;;;;;;;5013212;27;20443;-73
2023/02/22 01:30:21;;;;;;;23.27;9.77;;;;;;;;;;4984823;28;20058;-76
2023/02/22 01:32:49;;;;;;;22.17;9.30;;;;;;;;;;4987003;28;20060;-77
2023/02/22 01:35:18;;;;;;;23.42;8.98;;;;;;;;;;4938928;28;20055;-72
2023/02/22 01:37:45;;;;;;;24.77;10.15;;;;;;;;;;4943618;28;20042;-79
2023/02/22 01:50:25;;;;;;;22.60;9.43;;;;;;;;;;4866231;29;20496;-75
2023/02/22 01:52:56;;;;;;;29.00;10.52;;;;;;;;;;4916355;28;20075;-73
2023/02/22 01:55:23;;;;;;;28.13;10.32;;;;;;;;;;4897054;28;20067;-77
2023/02/22 01:57:51;;;;;;;28.67;11.38;;;;;;;;;;4965132;28;20094;-76
2023/02/22 02:00:21;;;;;;;27.30;10.65;;;;;;;;;;4979731;28;20085;-75
2023/02/22 02:02:50;;;;;;;25.73;10.18;;;;;;;;;;4990995;28;20060;-75
2023/02/22 02:05:17;;;;;;;25.98;10.98;;;;;;;;;;4997422;28;20049;-72
2023/02/22 02:07:48;;;;;;;30.33;11.20;;;;;;;;;;4958220;28;20054;-80
2023/02/22 02:10:15;;;;;;;26.15;10.75;;;;;;;;;;4979084;28;20477;-74
2023/02/22 02:12:43;;;;;;;28.83;10.73;;;;;;;;;;4972290;28;20051;-77
2023/02/22 02:15:17;;;;;;;27.85;10.57;;;;;;;;;;4985771;28;20050;-77
2023/02/22 02:17:47;;;;;;;29.13;10.13;;;;;;;;;;4977595;28;20300;-74
2023/02/22 02:20:17;;;;;;;28.00;10.90;;;;;;;;;;4956781;28;20133;-80
2023/02/22 02:22:47;;;;;;;27.40;10.68;;;;;;;;;;4968951;28;20089;-74
2023/02/22 02:25:37;;;;;;;27.63;11.35;;;;;;;;;;5023749;28;20102;-78
2023/02/22 02:28:17;;;;;;;28.08;11.68;;;;;;;;;;4941122;28;20068;-73
2023/02/22 02:30:55;;;;;;;28.27;11.02;;;;;;;;;;5004381;28;20133;-74
2023/02/22 02:33:26;;;;;;;26.95;10.23;;;;;;;;;;4966964;28;20058;-75
2023/02/22 02:35:57;;;;;;;30.50;11.18;;;;;;;;;;4916319;28;20055;-76
2023/02/22 02:38:30;;;;;;;26.73;10.60;;;;;;;;;;4870527;28;20050;-76
2023/02/22 02:53:07;;;;;;;31.10;10.93;;;;;;;;;;4864705;29;20426;-79
2023/02/22 02:55:35;;;;;;;26.98;10.50;;;;;;;;;;4923227;28;20160;-78
2023/02/22 02:58:03;;;;;;;29.88;11.85;;;;;;;;;;4909863;28;20058;-75
2023/02/22 03:00:38;;;;;;;28.33;11.30;;;;;;;;;;4944517;28;20079;-78
2023/02/22 03:03:20;;;;;;;27.48;10.75;;;;;;;;;;4962459;28;20058;-76
2023/02/22 03:05:54;;;;;;;28.73;11.63;;;;;;;;;;4953170;28;20078;-74
2023/02/22 03:08:26;;;;;;;27.17;10.27;;;;;;;;;;4963334;28;20075;-76
2023/02/22 03:15:02;;;;;;;26.58;10.27;;;;;;;;;;5044367;27;20428;-74
2023/02/22 03:17:40;;;;;;;28.05;10.50;;;;;;;;;;5016212;28;20079;-76
2023/02/22 03:20:11;;;;;;;28.17;10.48;;;;;;;;;;5008742;28;20980;-76
2023/02/22 03:22:42;;;;;;;30.38;11.68;;;;;;;;;;4994438;28;20133;-73
2023/02/22 03:25:14;;;;;;;31.92;10.60;;;;;;;;;;5001573;28;20061;-77
2023/02/22 03:27:43;;;;;;;33.03;11.55;;;;;;;;;;5034394;28;20052;-74
2023/02/22 03:30:14;;;;;;;27.83;10.90;;;;;;;;;;5036675;28;20059;-77
2023/02/22 03:32:44;;;;;;;28.52;10.68;;;;;;;;;;5007942;28;20062;-76
2023/02/22 03:35:13;;;;;;;33.22;10.80;;;;;;;;;;4964063;28;20051;-79
2023/02/22 03:37:42;;;;;;;31.73;10.73;;;;;;;;;;4948936;28;20062;-73
2023/02/22 03:40:13;;;;;;;31.73;10.50;;;;;;;;;;4956920;28;20091;-78
2023/02/22 03:42:41;;;;;;;31.95;11.18;;;;;;;;;;4994841;28;20053;-74
2023/02/22 03:45:10;;;;;;;33.53;11.17;;;;;;;;;;5022890;28;20057;-79
2023/02/22 03:47:40;;;;;;;31.63;11.00;;;;;;;;;;5019381;28;20368;-72
2023/02/22 03:50:09;;;;;;;30.50;11.27;;;;;;;;;;5018712;28;21083;-75
2023/02/22 03:52:36;;;;;;;31.30;10.88;;;;;;;;;;4988740;28;20067;-73
2023/02/22 03:55:03;;;;;;;31.98;10.98;;;;;;;;;;4987525;28;20076;-78
2023/02/22 03:57:32;;;;;;;31.88;11.88;;;;;;;;;;5022833;28;20049;-75
2023/02/22 03:59:59;;;;;;;34.22;11.75;;;;;;;;;;5015982;28;20189;-74
2023/02/22 04:02:25;;;;;;;30.60;11.60;;;;;;;;;;5010104;28;20064;-76
2023/02/22 04:04:54;;;;;;;34.90;11.63;;;;;;;;;;5039049;28;20056;-78
2023/02/22 04:07:20;;;;;;;31.08;10.82;;;;;;;;;;5035490;28;20117;-75
2023/02/22 04:09:48;;;;;;;31.58;10.63;;;;;;;;;;4963278;28;20075;-72
2023/02/22 04:12:15;;;;;;;32.10;10.80;;;;;;;;;;4974988;28;20053;-74
2023/02/22 04:14:42;;;;;;;32.17;10.90;;;;;;;;;;4973258;28;20056;-77
2023/02/22 04:17:10;;;;;;;33.38;11.75;;;;;;;;;;5002502;28;20111;-76
2023/02/22 04:19:39;;;;;;;35.22;12.07;;;;;;;;;;5009803;28;20170;-77
2023/02/22 04:22:05;;;;;;;;;;;;;;;;;;4946058;28;20050;-72
2023/02/22 04:24:41;;;;;;;28.77;11.07;;;;;;;;;;5000513;28;19925;-75
2023/02/22 04:27:08;;;;;;;32.30;11.60;;;;;;;;;;4889004;29;20070;-78
2023/02/22 04:32:03;;;;;;;36.03;12.27;;;;;;;;;;4797552;29;20097;-74
2023/02/22 04:34:29;;;;;;;30.05;11.07;;;;;;;;;;4888824;29;20079;-73
2023/02/22 04:36:56;;;;;;;34.72;12.40;;;;;;;;;;4941609;28;20317;-75
2023/02/22 04:39:23;;;;;;;37.72;12.70;;;;;;;;;;5001222;28;20056;-74
2023/02/22 04:41:51;;;;;;;33.80;11.90;;;;;;;;;;4943609;28;20120;-76
2023/02/22 04:44:18;;;;;;;35.10;11.10;;;;;;;;;;4943057;28;20209;-72
2023/02/22 04:46:45;;;;;;;36.13;11.45;;;;;;;;;;4934507;28;20058;-72
2023/02/22 04:51:55;;;;;;;34.17;11.85;;;;;;;;;;4979118;28;20470;-75
2023/02/22 04:54:22;;;;;;;35.08;11.48;;;;;;;;;;5006718;28;20077;-73
2023/02/22 04:56:48;;;;;;;37.40;11.10;;;;;;;;;;5020285;28;20076;-72
2023/02/22 04:59:15;;;;;;;35.47;12.40;;;;;;;;;;5008929;28;20053;-75
2023/02/22 05:01:42;;;;;;;39.75;12.57;;;;;;;;;;4957356;28;20062;-72
2023/02/22 05:04:09;;;;;;;38.80;12.82;;;;;;;;;;4981448;28;20049;-69
2023/02/22 05:06:35;;;;;;;32.85;12.02;;;;;;;;;;4984965;28;20057;-76
2023/02/22 05:09:04;;;;;;;38.63;12.50;;;;;;;;;;4996573;28;20081;-76
2023/02/22 05:11:30;;;;;;;37.92;12.38;;;;;;;;;;5003884;28;20053;-73
2023/02/22 05:13:57;;;;;;;39.42;12.43;;;;;;;;;;4929895;28;20050;-72
2023/02/22 05:16:24;;;;;;;36.38;11.55;;;;;;;;;;5019494;28;20065;-74
2023/02/22 05:18:50;;;;;;;36.05;12.95;;;;;;;;;;4996216;28;20128;-72
2023/02/22 05:21:17;;;;;;;37.97;12.95;;;;;;;;;;5012740;28;20049;-73
2023/02/22 05:23:44;;;;;;;38.95;12.98;;;;;;;;;;4956501;28;20062;-73
2023/02/22 05:26:12;;;;;;;31.85;11.52;;;;;;;;;;4979722;28;20065;-76
2023/02/22 05:28:39;;;;;;;36.28;11.70;;;;;;;;;;4966666;28;20058;-74
2023/02/22 05:34:05;;;;;;;41.20;12.50;;;;;;;;;;4882612;28;20077;-73
2023/02/22 05:36:32;;;;;;;43.22;12.48;;;;;;;;;;4943080;28;20075;-73
2023/02/22 05:38:59;;;;;;;42.40;12.88;;;;;;;;;;4967919;28;20049;-71
2023/02/22 05:41:28;;;;;;;37.47;13.00;;;;;;;;;;5012595;28;20076;-74
2023/02/22 05:43:54;;;;;;;36.75;12.77;;;;;;;;;;4936091;28;20065;-75
2023/02/22 05:46:21;;;;;;;38.08;13.02;;;;;;;;;;5014021;28;20057;-74
2023/02/22 05:48:48;;;;;;;38.42;13.35;;;;;;;;;;4999086;28;20052;-76
2023/02/22 05:51:15;;;;;;;42.78;13.05;;;;;;;;;;4971305;28;20546;-72
2023/02/22 05:56:29;;;;;;;39.90;13.60;;;;;;;;;;4993510;27;20523;-72
2023/02/22 05:58:55;;;;;;;42.90;13.93;;;;;;;;;;5010736;28;20053;-77
2023/02/22 06:01:22;;;;;;;37.97;13.60;;;;;;;;;;5016481;28;20052;-72
2023/02/22 06:03:50;;;;;;;37.75;12.77;;;;;;;;;;4933970;28;20038;-72
2023/02/22 06:06:18;;;;;;;42.22;12.88;;;;;;;;;;5006031;28;20053;-74
2023/02/22 06:08:45;;;;;;;37.40;12.95;;;;;;;;;;4979797;28;20159;-72
2023/02/22 06:11:12;;;;;;;42.70;13.45;;;;;;;;;;4993069;28;20052;-71
2023/02/22 06:16:22;;;;;;;39.15;14.35;;;;;;;;;;5050208;27;20490;-74
2023/02/22 06:18:49;;;;;;;41.63;13.85;;;;;;;;;;4991363;28;20054;-73
2023/02/22 06:21:16;;;;;;;38.00;13.07;;;;;;;;;;4968962;28;20057;-73
2023/02/22 06:23:44;;;;;;;39.10;14.57;;;;;;;;;;4934737;28;20057;-80
2023/02/22 06:26:15;;;;;;;36.53;12.88;;;;;;;;;;4961381;28;20061;-74
2023/02/22 06:28:45;;;;;;;38.67;13.18;;;;;;;;;;4952939;28;20054;-74
2023/02/22 06:31:13;;;;;;;39.22;13.18;;;;;;;;;;4956727;28;20102;-77
2023/02/22 06:33:41;;;;;;;37.17;12.63;;;;;;;;;;4892722;28;20385;-76
2023/02/22 06:36:09;;;;;;;36.85;11.98;;;;;;;;;;4912713;28;20611;-76
2023/02/22 06:38:36;;;;;;;42.13;14.10;;;;;;;;;;4916266;28;20118;-72
2023/02/22 06:46:11;;;;;;;38.38;13.23;;;;;;;;;;5069831;27;1412957;-73
2023/02/22 06:48:39;;;;;;;37.30;12.38;;;;;;;;;;5048932;28;20044;-73
2023/02/22 06:51:07;;;;;;;40.55;13.32;;;;;;;;;;5000644;28;20108;-73
2023/02/22 06:56:15;;;;;;;39.70;14.68;;;;;;;;;;5002167;27;20461;-75
2023/02/22 06:58:42;;;;;;;41.67;13.63;;;;;;;;;;4975186;28;20053;-74
2023/02/22 07:01:09;;;;;;;45.35;15.02;;;;;;;;;;4996577;28;20089;-73
2023/02/22 07:03:37;;;;;;;40.95;14.20;;;;;;;;;;4961888;28;20060;-74
2023/02/22 07:06:04;;;;;;;;;;;;;;;;;;4995104;28;20049;-74
2023/02/22 07:08:31;;;;;;;38.70;12.85;;;;;;;;;;5023968;28;19977;-74
2023/02/22 07:10:58;;;;;;;37.97;13.63;;;;;;;;;;5029332;28;20049;-75
2023/02/22 07:13:26;;;;;;;37.90;13.60;;;;;;;;;;4928730;28;21037;-77
2023/02/22 07:15:53;;;;;;;36.65;13.63;;;;;;;;;;4896901;28;20055;-73
2023/02/22 07:18:20;;;;;;;37.95;13.68;;;;;;;;;;4920114;28;20213;-74
2023/02/22 07:20:47;;;;;;;45.20;13.80;;;;;;;;;;4969790;28;20058;-72
2023/02/22 07:23:17;;;;;;;40.10;13.55;;;;;;;;;;4971851;28;20045;-76
2023/02/22 07:25:44;;;;;;;38.70;13.38;;;;;;;;;;4978731;28;20200;-76
2023/02/22 07:28:11;;;;;;;44.20;13.75;;;;;;;;;;4996411;28;20096;-73
2023/02/22 07:30:39;;;;;;;41.78;13.10;;;;;;;;;;4980467;28;20057;-74
2023/02/22 07:35:32;;;;;;;41.88;14.30;;;;;;;;;;4927879;28;20062;-75
2023/02/22 07:42:59;;;;;;;38.92;13.52;;;;;;;;;;4841720;29;20127;-75
2023/02/22 07:45:27;;;;;;;35.15;13.23;;;;;;;;;;4893441;28;20059;-73
2023/02/22 07:47:55;;;;;;;42.50;14.03;;;;;;;;;;4868663;28;20051;-71
2023/02/22 07:50:22;;;;;;;43.47;14.10;;;;;;;;;;4900397;28;20335;-77
2023/02/22 07:53:05;;;;;;;39.97;13.55;;;;;;;;;;4940243;28;20130;-76
2023/02/22 07:58:15;;;;;;;38.05;12.55;;;;;;;;;;5036067;27;20484;-76
2023/02/22 08:00:44;;;;;;;38.35;13.52;;;;;;;;;;4925333;28;20063;-75
2023/02/22 08:03:11;;;;;;;42.50;13.30;;;;;;;;;;4866541;29;20068;-76
2023/02/22 08:08:26;;;;;;;35.78;12.63;;;;;;;;;;5022451;27;20582;-77
2023/02/22 08:10:53;;;;;;;33.78;12.90;;;;;;;;;;4943644;28;20069;-78
2023/02/22 08:13:21;;;;;;;39.85;13.77;;;;;;;;;;4971829;28;20099;-82
2023/02/22 08:15:48;;;;;;;34.05;12.02;;;;;;;;;;4922242;28;20054;-76
2023/02/22 08:18:17;;;;;;;38.83;11.50;;;;;;;;;;4954186;28;20062;-76
2023/02/22 08:28:13;;;;;;;36.08;13.50;;;;;;;;;;4967952;27;20453;-74
2023/02/22 08:30:45;;;;;;;37.47;12.27;;;;;;;;;;4906691;28;20056;-75
2023/02/22 08:35:39;;;;;;;39.28;13.00;;;;;;;;;;4565707;29;4449118;-71
2023/02/22 08:53:49;;;;;;;42.80;16.65;;;;;;;;;;6172212;22;1624596;-74
2023/02/22 08:56:17;;;;;;;39.40;13.68;;;;;;;;;;6099755;23;20024;-72
2023/02/22 08:58:45;;;;;;;40.70;12.95;;;;;;;;;;6163249;23;20024;-75
2023/02/22 09:01:14;;;;;;;32.75;12.23;;;;;;;;;;6178678;23;20026;-72
2023/02/22 09:03:43;;;;;;;31.05;11.88;;;;;;;;;;6126371;23;20043;-73
2023/02/22 09:08:53;;;;;;;32.35;11.85;;;;;;;;;;5025244;27;20901;-75
2023/02/22 09:11:22;;;;;;;31.80;10.85;;;;;;;;;;4993839;28;20045;-72
2023/02/22 09:13:49;;;;;;;34.10;12.18;;;;;;;;;;5009357;28;20057;-74
2023/02/22 09:16:19;;;;;;;32.78;11.48;;;;;;;;;;4944904;28;20398;-73
2023/02/22 09:18:46;;;;;;;37.67;12.80;;;;;;;;;;4992474;28;20416;-76
2023/02/22 09:21:13;;;;;;;36.55;12.65;;;;;;;;;;4990921;28;20045;-76
2023/02/22 09:23:44;;;;;;;40.80;13.30;;;;;;;;;;4952296;28;20137;-75
2023/02/22 09:28:53;;;;;;;38.50;11.75;;;;;;;;;;4920526;28;20047;-74
2023/02/22 09:31:22;;;;;;;35.65;11.23;;;;;;;;;;4919290;28;20058;-73
2023/02/22 09:33:52;;;;;;;36.28;12.77;;;;;;;;;;4892228;28;20071;-74
2023/02/22 09:36:21;;;;;;;38.08;12.07;;;;;;;;;;4880249;29;20047;-70
2023/02/22 09:38:47;;;;;;;37.25;12.07;;;;;;;;;;4909371;28;20151;-69
2023/02/22 09:41:20;;;;;;;36.40;11.77;;;;;;;;;;4901139;28;20055;-79
2023/02/22 09:43:56;;;;;;;33.30;11.32;;;;;;;;;;4900314;28;20094;-74
2023/02/22 09:46:26;;;;;;;32.65;11.15;;;;;;;;;;4854172;28;20060;-74
2023/02/22 09:51:19;;;;;;;34.15;12.05;;;;;;;;;;4856667;29;20060;-75
2023/02/22 10:17:21;;;;;;;34.53;11.38;;;;;;;;;;6187909;22;1629095;-76
2023/02/22 10:19:54;;;;;;;35.10;11.98;;;;;;;;;;6072443;23;20032;-77
2023/02/22 10:22:31;;;;;;;36.47;12.15;;;;;;;;;;5963162;23;20106;-77
2023/02/22 10:25:00;;;;;;;33.78;11.85;;;;;;;;;;5968496;23;20030;-74
2023/02/22 10:27:29;;;;;;;33.25;11.75;;;;;;;;;;5962292;23;20022;-79
2023/02/22 10:29:59;;;;;;;31.13;11.18;;;;;;;;;;6003516;23;20031;-72
2023/02/22 10:37:40;;;;;;;41.03;11.70;;;;;;;;;;4962363;28;20497;-73
2023/02/22 10:40:16;;;;;;;41.17;13.48;;;;;;;;;;4868550;28;20055;-76
2023/02/22 10:58:20;;;;;;;38.10;11.80;;;;;;;;;;5008771;27;20654;-71
2023/02/22 11:00:47;;;;;;;43.28;13.40;;;;;;;;;;4997021;28;20061;-69
2023/02/22 11:03:17;;;;;;;41.97;13.68;;;;;;;;;;5006158;28;20050;-71
2023/02/22 11:08:27;;;;;;;37.75;13.32;;;;;;;;;;4937622;28;20058;-70
2023/02/22 11:10:54;;;;;;;41.72;13.40;;;;;;;;;;5010192;28;20056;-73
2023/02/22 11:13:30;;;;;;;41.72;14.15;;;;;;;;;;5007561;28;20049;-73
2023/02/22 11:15:58;;;;;;;43.00;12.15;;;;;;;;;;5020396;28;20128;-75
2023/02/22 11:18:26;;;;;;;38.60;12.65;;;;;;;;;;5021476;28;20049;-75
2023/02/22 11:21:00;;;;;;;35.70;13.23;;;;;;;;;;4993710;28;20049;-73
2023/02/22 11:23:29;;;;;;;37.67;13.25;;;;;;;;;;4981586;28;20061;-72
2023/02/22 11:26:04;;;;;;;35.28;12.82;;;;;;;;;;5000284;28;20273;-71
2023/02/22 11:28:33;;;;;;;41.13;14.15;;;;;;;;;;5026439;28;20056;-72
2023/02/22 11:31:10;;;;;;;39.63;13.23;;;;;;;;;;4993434;28;20126;-75
2023/02/22 11:33:39;;;;;;;41.67;13.45;;;;;;;;;;4954251;28;20054;-74
2023/02/22 11:36:13;;;;;;;39.72;13.57;;;;;;;;;;4978512;28;20110;-75
2023/02/22 11:38:53;;;;;;;37.70;12.15;;;;;;;;;;4985851;28;20145;-74
2023/02/22 11:49:10;;;;;;;38.45;12.82;;;;;;;;;;4941805;27;20547;-77
2023/02/22 11:51:47;;;;;;;36.47;12.90;;;;;;;;;;4943874;28;20051;-73
2023/02/22 11:54:27;;;;;;;33.70;11.88;;;;;;;;;;4894854;28;20043;-76
2023/02/22 11:56:59;;;;;;;35.47;11.80;;;;;;;;;;4899789;28;20066;-74
2023/02/22 11:59:31;;;;;;;29.92;11.50;;;;;;;;;;4909677;28;20059;-73
2023/02/22 12:01:59;;;;;;;33.47;11.55;;;;;;;;;;4883397;28;20361;-72
2023/02/22 12:07:14;;;;;;;34.10;11.52;;;;;;;;;;4854690;28;20130;-75
2023/02/22 12:09:43;;;;;;;29.10;11.70;;;;;;;;;;4912402;28;20307;-72
2023/02/22 12:12:15;;;;;;;31.92;11.82;;;;;;;;;;4906319;29;20272;-71
2023/02/22 12:14:47;;;;;;;38.90;12.13;;;;;;;;;;4928005;28;20058;-72
2023/02/22 12:24:37;;;;;;;31.67;11.43;;;;;;;;;;4887332;29;20058;-73
2023/02/22 12:27:08;;;;;;;33.72;11.90;;;;;;;;;;4907500;28;20163;-81
2023/02/22 12:29:43;;;;;;;35.70;11.57;;;;;;;;;;4901446;28;20058;-79
2023/02/22 12:42:44;;;;;;;36.72;11.65;;;;;;;;;;4978731;27;1364372;-76
2023/02/22 12:45:17;;;;;;;28.58;10.85;;;;;;;;;;5013247;28;20053;-76
2023/02/22 12:52:59;;;;;;;32.13;11.52;;;;;;;;;;5031835;27;20454;-74
2023/02/22 12:55:38;;;;;;;29.33;11.48;;;;;;;;;;4958271;28;20046;-78
2023/02/22 13:00:51;;;;;;;30.13;11.10;;;;;;;;;;5043802;27;20520;-74
2023/02/22 13:03:30;;;;;;;31.10;11.45;;;;;;;;;;4964671;28;20050;-79
2023/02/22 13:06:03;;;;;;;29.20;11.40;;;;;;;;;;4986326;28;20045;-80
2023/02/22 13:11:17;;;;;;;30.00;11.23;;;;;;;;;;5051469;27;20158;-80
2023/02/22 13:13:51;;;;;;;29.95;11.38;;;;;;;;;;4999625;28;20056;-81
2023/02/22 13:16:24;;;;;;;32.03;11.20;;;;;;;;;;4970245;28;20269;-79
2023/02/22 13:27:10;;;;;;;29.10;10.63;;;;;;;;;;4937454;27;4555880;-80
2023/02/22 13:30:10;;;;;;;32.13;10.40;;;;;;;;;;4964110;28;20061;-75
2023/02/22 13:38:20;;;;;;;29.13;10.10;;;;;;;;;;4984581;27;20551;-79
2023/02/22 13:41:08;;;;;;;29.83;11.07;;;;;;;;;;4961367;28;20069;-72
2023/02/22 13:43:42;;;;;;;27.42;10.13;;;;;;;;;;4936450;28;20050;-77
2023/02/22 13:46:27;;;;;;;30.52;10.15;;;;;;;;;;4924099;28;20472;-78
2023/02/22 13:54:04;;;;;;;25.90;9.93;;;;;;;;;;4963681;28;20964;-80
2023/02/22 13:56:34;;;;;;;26.85;10.07;;;;;;;;;;4929351;28;20133;-77
2023/02/22 13:59:03;;;;;;;27.30;10.25;;;;;;;;;;4863270;28;20167;-77
2023/02/22 14:06:41;;;;;;;24.70;9.68;;;;;;;;;;4992738;28;20497;-77
2023/02/22 14:16:43;;;;;;;27.65;9.95;;;;;;;;;;4943177;27;1567939;-79
2023/02/22 14:42:11;;;;;;;28.23;10.13;;;;;;;;;;5054059;27;1563830;-77
2023/02/22 14:44:41;;;;;;;29.75;10.73;;;;;;;;;;5038434;28;20057;-76
2023/02/22 14:47:15;;;;;;;26.08;10.15;;;;;;;;;;5009912;28;20064;-81
2023/02/22 14:55:15;;;;;;;28.98;10.05;;;;;;;;;;4999828;27;20540;-77
2023/02/22 14:58:00;;;;;;;23.42;9.98;;;;;;;;;;4952129;28;20062;-76
2023/02/22 15:13:49;;;;;;;22.33;8.30;;;;;;;;;;5025419;27;20951;-77
